Time,TemperatureF,DewpointF,PressureIn,WindDirection,WindDirectionDegrees,WindSpeedMPH,WindSpeedGustMPH,Humidity,HourlyPrecipIn,Conditions,Clouds,dailyrainin,SolarRadiationWatts/m^2,SoftwareType,DateUTC
2013-01-31 00:05:00,54.8,26.0,30.20,NE,50,3.0,-999.0,33,-99.99,,,0.00,0,weatherlink.com 1.10,2013-01-31 06:05:00,
2013-01-31 00:20:00,54.7,26.0,30.19,NE,48,3.0,-999.0,33,-99.99,,,0.00,0,weatherlink.com 1.10,2013-01-31 06:20:00,
2013-01-31 00:36:00,54.2,26.0,30.19,NE,42,3.0,-999.0,34,-99.99,,,0.00,0,weatherlink.com 1.10,2013-01-31 06:36:00,
2013-01-31 00:51:00,54.3,26.0,30.19,NE,53,2.0,-999.0,34,-99.99,,,0.00,0,weatherlink.com 1.10,2013-01-31 06:51:00,
2013-01-31 01:06:00,53.7,26.0,30.19,ENE,61,0.0,-999.0,35,-99.99,,,0.00,0,weatherlink.com 1.10,2013-01-31 07:06:00,
2013-01-31 01:21:00,52.5,30.0,30.20,ENE,61,1.0,-999.0,42,-99.99,,,0.00,0,weatherlink.com 1.10,2013-01-31 07:21:00,
2013-01-31 01:36:00,51.4,31.0,30.20,ENE,61,0.0,-999.0,46,-99.99,,,0.00,0,weatherlink.com 1.10,2013-01-31 07:36:00,
2013-01-31 01:51:00,49.7,32.0,30.20,ENE,61,1.0,-999.0,51,-99.99,,,0.00,0,weatherlink.com 1.10,2013-01-31 07:51:00,
2013-01-31 02:06:00,47.9,32.0,30.19,ENE,61,0.0,-999.0,54,-99.99,,,0.00,0,weatherlink.com 1.10,2013-01-31 08:06:00,
2013-01-31 02:21:00,46.7,32.0,30.19,ENE,61,0.0,-999.0,56,-99.99,,,0.00,0,weatherlink.com 1.10,2013-01-31 08:21:00,
2013-01-31 02:36:00,45.6,32.0,30.19,ENE,61,0.0,-999.0,60,-99.99,,,0.00,0,weatherlink.com 1.10,2013-01-31 08:36:00,
2013-01-31 02:51:00,44.9,34.0,30.19,ENE,61,0.0,-999.0,67,-99.99,,,0.00,0,weatherlink.com 1.10,2013-01-31 08:51:00,
2013-01-31 03:06:00,44.1,32.0,30.19,ENE,61,0.0,-999.0,63,-99.99,,,0.00,0,weatherlink.com 1.10,2013-01-31 09:06:00,
2013-01-31 03:21:00,43.8,31.0,30.19,ENE,61,0.0,-999.0,61,-99.99,,,0.00,0,weatherlink.com 1.10,2013-01-31 09:21:00,
2013-01-31 03:36:00,43.2,30.0,30.19,ENE,61,0.0,-999.0,59,-99.99,,,0.00,0,weatherlink.com 1.10,2013-01-31 09:36:00,
2013-01-31 03:51:00,42.4,28.0,30.19,ENE,61,0.0,-999.0,58,-99.99,,,0.00,0,weatherlink.com 1.10,2013-01-31 09:51:00,
2013-01-31 04:06:00,42.2,28.0,30.19,ENE,61,0.0,-999.0,57,-99.99,,,0.00,0,weatherlink.com 1.10,2013-01-31 10:06:00,
2013-01-31 04:21:00,41.7,31.0,30.20,ENE,59,1.0,-999.0,65,-99.99,,,0.00,0,weatherlink.com 1.10,2013-01-31 10:21:00,
2013-01-31 04:37:00,40.1,30.0,30.20,ENE,59,0.0,-999.0,68,-99.99,,,0.00,0,weatherlink.com 1.10,2013-01-31 10:37:00,
2013-01-31 04:52:00,39.7,30.0,30.20,NNE,28,0.0,-999.0,69,-99.99,,,0.00,0,weatherlink.com 1.10,2013-01-31 10:52:00,
2013-01-31 05:06:00,39.2,27.0,30.20,WNW,302,2.0,-999.0,62,-99.99,,,0.00,0,weatherlink.com 1.10,2013-01-31 11:06:00,
2013-01-31 05:21:00,39.3,25.0,30.21,West,266,1.0,-999.0,57,-99.99,,,0.00,0,weatherlink.com 1.10,2013-01-31 11:21:00,
2013-01-31 05:37:00,39.5,26.0,30.21,West,266,0.0,-999.0,59,-99.99,,,0.00,0,weatherlink.com 1.10,2013-01-31 11:37:00,
2013-01-31 05:52:00,38.9,24.0,30.20,West,266,0.0,-999.0,56,-99.99,,,0.00,0,weatherlink.com 1.10,2013-01-31 11:52:00,
2013-01-31 06:07:00,39.5,27.0,30.21,West,266,2.0,-999.0,61,-99.99,,,0.00,0,weatherlink.com 1.10,2013-01-31 12:07:00,
2013-01-31 06:37:00,38.5,27.0,30.23,West,270,2.0,-999.0,63,-99.99,,,0.00,0,weatherlink.com 1.10,2013-01-31 12:37:00,
2013-01-31 06:52:00,38.1,26.0,30.22,West,270,0.0,-999.0,62,-99.99,,,0.00,0,weatherlink.com 1.10,2013-01-31 12:52:00,
2013-01-31 07:07:00,38.6,26.0,30.24,West,270,1.0,-999.0,60,-99.99,,,0.00,0,weatherlink.com 1.10,2013-01-31 13:07:00,
2013-01-31 07:22:00,38.0,25.0,30.24,West,270,1.0,-999.0,59,-99.99,,,0.00,5,weatherlink.com 1.10,2013-01-31 13:22:00,
2013-01-31 07:37:00,38.1,23.0,30.24,West,270,1.0,-999.0,56,-99.99,,,0.00,14,weatherlink.com 1.10,2013-01-31 13:37:00,
2013-01-31 07:52:00,38.9,24.0,30.24,West,270,2.0,-999.0,56,-99.99,,,0.00,23,weatherlink.com 1.10,2013-01-31 13:52:00,
2013-01-31 08:07:00,40.0,25.0,30.24,West,270,3.0,-999.0,55,-99.99,,,0.00,46,weatherlink.com 1.10,2013-01-31 14:07:00,
2013-01-31 08:22:00,41.4,26.0,30.26,West,279,2.0,-999.0,55,-99.99,,,0.00,54,weatherlink.com 1.10,2013-01-31 14:22:00,
2013-01-31 08:37:00,42.7,26.0,30.26,WNW,290,2.0,-999.0,53,-99.99,,,0.00,193,weatherlink.com 1.10,2013-01-31 14:37:00,
2013-01-31 08:53:00,44.2,29.0,30.26,WNW,290,2.0,-999.0,55,-99.99,,,0.00,262,weatherlink.com 1.10,2013-01-31 14:53:00,
2013-01-31 09:07:00,46.3,30.0,30.27,West,275,3.0,-999.0,53,-99.99,,,0.00,207,weatherlink.com 1.10,2013-01-31 15:07:00,
2013-01-31 09:22:00,48.8,32.0,30.27,WNW,282,4.0,-999.0,53,-99.99,,,0.00,332,weatherlink.com 1.10,2013-01-31 15:22:00,
2013-01-31 09:38:00,50.9,33.0,30.27,West,271,2.0,-999.0,50,-99.99,,,0.00,162,weatherlink.com 1.10,2013-01-31 15:38:00,
2013-01-31 09:53:00,52.6,34.0,30.27,West,271,0.0,-999.0,49,-99.99,,,0.00,158,weatherlink.com 1.10,2013-01-31 15:53:00,
2013-01-31 10:08:00,55.4,36.0,30.28,West,271,0.0,-999.0,48,-99.99,,,0.00,547,weatherlink.com 1.10,2013-01-31 16:08:00,
2013-01-31 10:23:00,59.6,38.0,30.28,SE,141,2.0,-999.0,45,-99.99,,,0.00,580,weatherlink.com 1.10,2013-01-31 16:23:00,
2013-01-31 10:38:00,63.2,37.0,30.27,South,173,3.0,-999.0,38,-99.99,,,0.00,613,weatherlink.com 1.10,2013-01-31 16:38:00,
2013-01-31 10:53:00,64.5,30.0,30.28,SSW,198,5.0,-999.0,27,-99.99,,,0.00,640,weatherlink.com 1.10,2013-01-31 16:53:00,
2013-01-31 11:08:00,65.5,29.0,30.28,SE,138,3.0,-999.0,25,-99.99,,,0.00,703,weatherlink.com 1.10,2013-01-31 17:08:00,
2013-01-31 11:23:00,67.7,30.0,30.28,East,98,1.0,-999.0,24,-99.99,,,0.00,807,weatherlink.com 1.10,2013-01-31 17:23:00,
2013-01-31 11:38:00,67.6,29.0,30.27,SE,146,5.0,-999.0,24,-99.99,,,0.00,953,weatherlink.com 1.10,2013-01-31 17:38:00,
2013-01-31 11:53:00,68.3,27.0,30.26,South,178,2.0,-999.0,21,-99.99,,,0.00,432,weatherlink.com 1.10,2013-01-31 17:53:00,
2013-01-31 12:08:00,67.6,30.0,30.26,SE,146,0.0,-999.0,25,-99.99,,,0.00,874,weatherlink.com 1.10,2013-01-31 18:08:00,
2013-01-31 12:23:00,69.5,28.0,30.25,East,95,2.0,-999.0,21,-99.99,,,0.00,729,weatherlink.com 1.10,2013-01-31 18:23:00,
2013-01-31 12:38:00,69.4,30.0,30.25,SSE,163,10.0,-999.0,23,-99.99,,,0.00,529,weatherlink.com 1.10,2013-01-31 18:38:00,
2013-01-31 12:54:00,68.8,31.0,30.24,SSE,165,5.0,-999.0,25,-99.99,,,0.00,758,weatherlink.com 1.10,2013-01-31 18:54:00,
2013-01-31 13:08:00,69.6,33.0,30.23,SE,140,5.0,-999.0,26,-99.99,,,0.00,823,weatherlink.com 1.10,2013-01-31 19:08:00,
2013-01-31 13:23:00,69.7,33.0,30.21,South,175,6.0,-999.0,26,-99.99,,,0.00,722,weatherlink.com 1.10,2013-01-31 19:23:00,
2013-01-31 13:39:00,68.5,31.0,30.21,SE,135,4.0,-999.0,25,-99.99,,,0.00,626,weatherlink.com 1.10,2013-01-31 19:39:00,
2013-01-31 13:54:00,69.1,33.0,30.21,SE,131,5.0,-999.0,26,-99.99,,,0.00,756,weatherlink.com 1.10,2013-01-31 19:54:00,
2013-01-31 14:09:00,68.6,32.0,30.20,ESE,115,5.0,-999.0,26,-99.99,,,0.00,339,weatherlink.com 1.10,2013-01-31 20:09:00,
2013-01-31 14:23:00,67.9,33.0,30.19,East,100,5.0,-999.0,27,-99.99,,,0.00,323,weatherlink.com 1.10,2013-01-31 20:23:00,
2013-01-31 14:38:00,68.0,32.0,30.18,SSE,163,5.0,-999.0,26,-99.99,,,0.00,522,weatherlink.com 1.10,2013-01-31 20:38:00,
2013-01-31 14:54:00,68.3,31.0,30.18,ESE,114,2.0,-999.0,25,-99.99,,,0.00,613,weatherlink.com 1.10,2013-01-31 20:54:00,
2013-01-31 15:08:00,67.8,33.0,30.18,South,174,6.0,-999.0,28,-99.99,,,0.00,520,weatherlink.com 1.10,2013-01-31 21:08:00,
2013-01-31 15:23:00,67.9,33.0,30.18,SE,133,7.0,-999.0,27,-99.99,,,0.00,522,weatherlink.com 1.10,2013-01-31 21:23:00,
2013-01-31 15:39:00,67.2,38.0,30.17,SE,140,4.0,-999.0,34,-99.99,,,0.00,373,weatherlink.com 1.10,2013-01-31 21:39:00,
2013-01-31 15:53:00,67.0,38.0,30.18,SSE,159,4.0,-999.0,34,-99.99,,,0.00,385,weatherlink.com 1.10,2013-01-31 21:53:00,
2013-01-31 16:08:00,66.4,40.0,30.18,SE,142,4.0,-999.0,38,-99.99,,,0.00,396,weatherlink.com 1.10,2013-01-31 22:08:00,
2013-01-31 16:23:00,65.5,38.0,30.17,SSW,200,7.0,-999.0,37,-99.99,,,0.00,250,weatherlink.com 1.10,2013-01-31 22:23:00,
2013-01-31 16:38:00,65.1,41.0,30.17,ESE,121,6.0,-999.0,41,-99.99,,,0.00,241,weatherlink.com 1.10,2013-01-31 22:38:00,
2013-01-31 16:54:00,64.7,42.0,30.17,East,98,3.0,-999.0,43,-99.99,,,0.00,139,weatherlink.com 1.10,2013-01-31 22:54:00,
2013-01-31 17:08:00,63.6,42.0,30.17,SE,128,6.0,-999.0,45,-99.99,,,0.00,144,weatherlink.com 1.10,2013-01-31 23:08:00,
2013-01-31 17:24:00,63.1,42.0,30.17,SSE,152,6.0,-999.0,46,-99.99,,,0.00,149,weatherlink.com 1.10,2013-01-31 23:24:00,
2013-01-31 17:39:00,62.7,43.0,30.18,SSE,152,10.0,-999.0,48,-99.99,,,0.00,49,weatherlink.com 1.10,2013-01-31 23:39:00,
2013-01-31 17:54:00,61.6,43.0,30.18,SSE,151,4.0,-999.0,50,-99.99,,,0.00,21,weatherlink.com 1.10,2013-01-31 23:54:00,
2013-01-31 18:09:00,60.5,44.0,30.17,SE,145,1.0,-999.0,54,-99.99,,,0.00,5,weatherlink.com 1.10,2013-02-01 00:09:00,
2013-01-31 18:24:00,59.5,44.0,30.18,SSE,157,2.0,-999.0,57,-99.99,,,0.00,0,weatherlink.com 1.10,2013-02-01 00:24:00,
2013-01-31 18:39:00,58.4,44.0,30.18,SE,144,2.0,-999.0,60,-99.99,,,0.00,0,weatherlink.com 1.10,2013-02-01 00:39:00,
2013-01-31 18:54:00,57.1,45.0,30.18,SE,142,1.0,-999.0,64,-99.99,,,0.00,0,weatherlink.com 1.10,2013-02-01 00:54:00,
2013-01-31 19:09:00,56.3,45.0,30.18,SE,128,1.0,-999.0,66,-99.99,,,0.00,0,weatherlink.com 1.10,2013-02-01 01:09:00,
2013-01-31 19:24:00,55.5,45.0,30.20,SE,128,1.0,-999.0,68,-99.99,,,0.00,0,weatherlink.com 1.10,2013-02-01 01:24:00,
2013-01-31 19:39:00,54.8,45.0,30.20,SE,132,0.0,-999.0,70,-99.99,,,0.00,0,weatherlink.com 1.10,2013-02-01 01:39:00,
2013-01-31 19:54:00,54.3,46.0,30.20,ESE,115,0.0,-999.0,73,-99.99,,,0.00,0,weatherlink.com 1.10,2013-02-01 01:54:00,
2013-01-31 20:09:00,53.9,46.0,30.21,ESE,115,0.0,-999.0,74,-99.99,,,0.00,0,weatherlink.com 1.10,2013-02-01 02:09:00,
2013-01-31 20:24:00,53.9,46.0,30.21,ESE,115,0.0,-999.0,75,-99.99,,,0.00,0,weatherlink.com 1.10,2013-02-01 02:24:00,
2013-01-31 20:39:00,54.1,47.0,30.22,ESE,115,0.0,-999.0,77,-99.99,,,0.00,0,weatherlink.com 1.10,2013-02-01 02:39:00,
2013-01-31 20:54:00,54.5,48.0,30.23,SE,128,0.0,-999.0,78,-99.99,,,0.00,0,weatherlink.com 1.10,2013-02-01 02:54:00,
2013-01-31 21:09:00,54.6,48.0,30.23,SE,134,1.0,-999.0,78,-99.99,,,0.00,0,weatherlink.com 1.10,2013-02-01 03:09:00,
2013-01-31 21:24:00,54.6,48.0,30.23,SE,134,0.0,-999.0,78,-99.99,,,0.00,0,weatherlink.com 1.10,2013-02-01 03:24:00,
2013-01-31 21:39:00,54.3,48.0,30.23,SE,134,0.0,-999.0,79,-99.99,,,0.00,0,weatherlink.com 1.10,2013-02-01 03:39:00,
2013-01-31 21:54:00,54.1,48.0,30.25,SE,134,0.0,-999.0,80,-99.99,,,0.00,0,weatherlink.com 1.10,2013-02-01 03:54:00,
2013-01-31 22:09:00,53.8,48.0,30.23,SE,134,0.0,-999.0,80,-99.99,,,0.00,0,weatherlink.com 1.10,2013-02-01 04:09:00,
2013-01-31 22:24:00,53.4,48.0,30.24,SE,134,0.0,-999.0,81,-99.99,,,0.00,0,weatherlink.com 1.10,2013-02-01 04:24:00,
2013-01-31 22:39:00,53.3,48.0,30.23,SE,134,0.0,-999.0,83,-99.99,,,0.00,0,weatherlink.com 1.10,2013-02-01 04:39:00,
2013-01-31 22:54:00,53.5,49.0,30.23,SE,134,0.0,-999.0,84,-99.99,,,0.00,0,weatherlink.com 1.10,2013-02-01 04:54:00,
2013-01-31 23:09:00,53.8,49.0,30.23,ESE,108,0.0,-999.0,84,-99.99,,,0.00,0,weatherlink.com 1.10,2013-02-01 05:09:00,
2013-01-31 23:24:00,53.6,49.0,30.24,SE,126,0.0,-999.0,83,-99.99,,,0.00,0,weatherlink.com 1.10,2013-02-01 05:24:00,
2013-01-31 23:39:00,53.4,49.0,30.24,SE,126,0.0,-999.0,84,-99.99,,,0.00,0,weatherlink.com 1.10,2013-02-01 05:39:00,
2013-01-31 23:54:00,53.3,49.0,30.23,ESE,123,0.0,-999.0,85,-99.99,,,0.00,0,weatherlink.com 1.10,2013-02-01 05:54:00,